RNB weather

Ronneby Airport
Blekinge län, Sweden

Public forecast

Using degrees Celsius for public forecast. Weather courtesy of forecast.io.

METAR (pilot weather report)

Retrieved 2019/09/19 03:20 UTC (19 minutes ago):

ESDF 190320Z AUTO 32004KT 9999 NCD 04/04 Q1020

TAF (pilot weather forecast)

Forecast is more than 12 hours old.

Retrieved 2018/05/29 12:27 UTC (1 year ago):

TAF TAF ESDF 291425Z 2912/2924 07008KT CAVOK RMK MIL